Thursday, June 21, 2018, 12:11 PM EDT
Back to Local

KPSF, Pittsfield Municipal Airport

Location: Pittsfield, MA, United States Lat: 42.433
Local Time: 12:11 PM EDT (16:11 GMT) Lon: -73.283
Time Zone: US/Eastern Elev: 1194 ft

Show me the last for .
Show Decoded

2018-06-21 11:54 METAR KPSF 211554Z AUTO VRB04KT 10SM FEW045 26/13 A2981 RMK AO2 SLP071 T02560128
                 =
2018-06-21 10:54 METAR KPSF 211454Z AUTO 02005KT 10SM CLR 24/13 A2982 RMK AO2 SLP075 T02440128
                 50002 =
2018-06-21 09:54 METAR KPSF 211354Z AUTO 33003KT 10SM CLR 22/13 A2982 RMK AO2 SLP076 T02170128 =
2018-06-21 08:54 METAR KPSF 211254Z AUTO 00000KT 10SM CLR 18/12 A2982 RMK AO2 SLP076 T01830122 =
2018-06-21 08:19 METAR KPSF 211219Z AUTO 00000KT 10SM SCT001 14/13 A2981 RMK AO2 T01440133 =
2018-06-21 08:12 METAR KPSF 211212Z AUTO 00000KT 9SM BKN001 14/13 A2981 RMK AO2 T01390128 =
2018-06-21 08:03 METAR KPSF 211203Z AUTO 00000KT 2SM BR BKN001 13/12 A2981 RMK AO2 T01330122 =
2018-06-21 07:54 METAR KPSF 211154Z AUTO 00000KT 1/2SM FG VV001 13/12 A2981 RMK AO2 SLP077
                 T01330122 10133 20106 51007 =
2018-06-21 07:49 METAR KPSF 211149Z AUTO 00000KT 3/4SM BR VV001 13/12 A2981 RMK AO2 =
2018-06-21 07:19 METAR KPSF 211119Z AUTO 05004KT M1/4SM FG VV001 12/11 A2981 RMK AO2 T01220111 =
2018-06-21 07:11 METAR KPSF 211111Z AUTO 03004KT 1/2SM FG VV001 12/11 A2980 RMK AO2 T01220111 =
2018-06-21 07:03 METAR KPSF 211103Z AUTO 00000KT 2SM BR BKN001 12/11 A2980 RMK AO2 T01220111 =
2018-06-21 06:54 METAR KPSF 211054Z AUTO 00000KT 1/2SM FG VV001 12/11 A2980 RMK AO2 SLP072
                 T01170111 =
2018-06-21 05:54 METAR KPSF 210954Z AUTO 00000KT M1/4SM FG VV001 11/09 A2979 RMK AO2 SLP070
                 T01060094 =
2018-06-21 05:19 METAR KPSF 210919Z AUTO 00000KT 1/4SM FG VV001 11/09 A2978 RMK AO2 T01060094 =
2018-06-21 05:05 METAR KPSF 210905Z AUTO 00000KT 1/2SM FG VV001 11/09 A2979 RMK AO2 T01060094 =
2018-06-21 04:54 METAR KPSF 210854Z AUTO 00000KT 1/4SM FG VV001 11/10 A2978 RMK AO2 SLP067
                 T01110100 58001 =
2018-06-21 04:24 METAR KPSF 210824Z AUTO 00000KT 1/4SM FG VV001 11/10 A2978 RMK AO2 T01110100 =
2018-06-21 04:16 METAR KPSF 210816Z AUTO 00000KT 1/2SM FG VV001 11/10 A2978 RMK AO2 T01110100 =
2018-06-21 04:02 METAR KPSF 210802Z AUTO 00000KT 3/4SM BR VV002 11/10 A2978 RMK AO2 T01060100 =
2018-06-21 03:54 METAR KPSF 210754Z AUTO 01003KT 1SM BR VV002 11/09 A2979 RMK AO2 SLP068
                 T01060094 =
2018-06-21 03:51 METAR KPSF 210751Z AUTO 36003KT 1SM BR VV002 11/10 A2978 RMK AO2 =
2018-06-21 03:40 METAR KPSF 210740Z AUTO 00000KT 3/4SM BR VV001 11/10 A2978 RMK AO2 T01110100 =
2018-06-21 03:29 METAR KPSF 210729Z AUTO 00000KT 1SM BR VV002 12/10 A2978 RMK AO2 T01170100 =
2018-06-21 02:54 METAR KPSF 210654Z AUTO 26003KT 1/2SM FG VV001 12/11 A2978 RMK AO2 SLP067
                 T01220111 =
2018-06-21 02:52 METAR KPSF 210652Z AUTO 00000KT 3/4SM BR VV001 12/11 A2978 RMK AO2 =
2018-06-21 02:42 METAR KPSF 210642Z AUTO 00000KT 2 1/2SM BR BKN001 12/11 A2978 RMK AO2 VIS 1
                 1/4V5 T01220106 =
2018-06-21 02:39 METAR KPSF 210639Z AUTO 00000KT 4SM BR BKN002 12/10 A2979 RMK AO2 T01170100 =
2018-06-21 02:29 METAR KPSF 210629Z AUTO 00000KT 2 1/2SM BR FEW002 11/10 A2979 RMK AO2 T01110100
                 =
2018-06-21 02:05 METAR KPSF 210605Z AUTO 00000KT 10SM CLR 13/11 A2979 RMK AO2 T01280111 =
2018-06-21 01:54 METAR KPSF 210554Z AUTO 00000KT 2SM BR FEW002 12/10 A2980 RMK AO2 SLP071
                 T01170100 10211 20117 58005 =
2018-06-21 00:54 METAR KPSF 210454Z AUTO 00000KT 9SM CLR 13/11 A2981 RMK AO2 SLP075 T01280111
                 402330100 =
2018-06-21 00:50 METAR KPSF 210450Z AUTO 00000KT 10SM CLR 13/11 A2981 RMK AO2 =
2018-06-21 00:41 METAR KPSF 210441Z AUTO 15003KT 2 1/2SM BR CLR 12/11 A2981 RMK AO2 T01220111 =
2018-06-20 23:54 METAR KPSF 210354Z AUTO 00000KT 10SM CLR 14/12 A2981 RMK AO2 SLP076 T01390117 =
2018-06-20 22:54 METAR KPSF 210254Z AUTO 00000KT 10SM CLR 14/12 A2982 RMK AO2 SLP078 T01440122
                 50004 =
2018-06-20 21:54 METAR KPSF 210154Z AUTO 00000KT 10SM CLR 16/13 A2982 RMK AO2 SLP078 T01610133 =
2018-06-20 20:54 METAR KPSF 210054Z AUTO 00000KT 10SM CLR 19/14 A2981 RMK AO2 SLP073 T01940144 =
2018-06-20 19:54 METAR KPSF 202354Z AUTO 00000KT 10SM CLR 21/14 A2980 RMK AO2 SLP071 T02110139
                 10233 20206 55007 =
2018-06-20 18:54 METAR KPSF 202254Z AUTO 28005KT 10SM CLR 22/14 A2980 RMK AO2 SLP072 T02220139 =
2018-06-20 17:54 METAR KPSF 202154Z AUTO 36003KT 10SM CLR 23/14 A2980 RMK AO2 SLP074 T02280139 =
2018-06-20 16:54 METAR KPSF 202054Z AUTO 00000KT 10SM CLR 22/13 A2982 RMK AO2 SLP081 T02220133
                 56013 =
2018-06-20 15:54 METAR KPSF 201954Z AUTO 00000KT 10SM CLR 23/13 A2983 RMK AO2 SLP082 T02280128 =
2018-06-20 14:54 METAR KPSF 201854Z AUTO VRB03KT 10SM CLR 22/12 A2985 RMK AO2 SLP090 T02220122 =
2018-06-20 13:54 METAR KPSF 201754Z AUTO 23006KT 10SM CLR 22/11 A2986 RMK AO2 SLP093 T02220111
                 10222 20167 58015 =
2018-06-20 12:54 METAR KPSF 201654Z AUTO 19004KT 10SM CLR 21/11 A2988 RMK AO2 SLP098 T02060111 =

Support USWX by starting your Amazon purchase here.